Time;durP1;ratioP1;P1;durP2;ratioP2;P2;SDS_P1;SDS_P2;PMS_P1;PMS_P2;Temp;Humidity;BMP_temperature;BMP_pressure;BME280_temperature;BME280_humidity;BME280_pressure;Samples;Min_cycle;Max_cycle;Signal;HPM_P1;HPM_P2
2022/05/25 00:02:24;;;;;;;4.80;2.00;;;;;;;23.08;41.38;100759.65;106837;1284;74584;-86
2022/05/25 00:04:50;;;;;;;3.70;2.20;;;;;;;23.08;41.23;100757.81;106646;1284;61258;-84
2022/05/25 00:07:16;;;;;;;4.20;1.90;;;;;;;23.08;41.20;100756.05;106893;1283;61382;-84
2022/05/25 00:09:42;;;;;;;4.30;1.90;;;;;;;23.08;41.24;100760.92;106912;1283;61998;-85
2022/05/25 00:12:10;;;;;;;3.90;2.00;;;;;;;23.08;41.23;100764.15;106884;1283;59266;-84
2022/05/25 00:14:36;;;;;;;3.60;1.90;;;;;;;23.08;41.10;100770.08;106853;1283;61234;-86
2022/05/25 00:17:03;;;;;;;3.80;1.90;;;;;;;23.08;41.13;100778.15;106835;1284;60837;-85
2022/05/25 00:22:13;;;;;;;4.20;1.80;;;;;;;23.07;41.06;100773.70;106911;1283;75759;-83
2022/05/25 00:24:39;;;;;;;4.00;2.20;;;;;;;23.07;41.07;100774.80;106866;1283;61250;-84
2022/05/25 00:27:05;;;;;;;4.20;2.00;;;;;;;23.07;40.98;100776.02;107102;1283;61150;-82
2022/05/25 00:29:36;;;;;;;3.40;2.00;;;;;;;23.06;40.93;100773.58;106883;1283;73547;-85
2022/05/25 00:32:04;;;;;;;4.30;2.10;;;;;;;23.06;40.94;100776.10;106846;1283;75921;-84
2022/05/25 00:34:30;;;;;;;4.00;1.80;;;;;;;23.06;41.05;100774.51;106564;1284;61184;-86
2022/05/25 00:36:58;;;;;;;3.50;1.80;;;;;;;23.06;40.97;100774.88;106672;1283;61740;-83
2022/05/25 00:39:27;;;;;;;2.70;1.80;;;;;;;23.06;40.89;100779.89;106906;1282;73479;-85
2022/05/25 00:41:52;;;;;;;3.80;2.20;;;;;;;23.06;40.92;100774.53;106860;1284;74650;-85
2022/05/25 00:44:18;;;;;;;3.20;1.90;;;;;;;23.06;40.91;100771.67;106749;1283;61276;-87
2022/05/25 00:46:44;;;;;;;3.80;1.90;;;;;;;23.06;40.81;100775.81;106911;1283;61409;-86
2022/05/25 00:49:22;;;;;;;3.00;1.70;;;;;;;23.05;40.87;100779.06;106889;1286;61225;-88
2022/05/25 00:51:52;;;;;;;6.10;2.10;;;;;;;23.06;40.90;100783.72;107125;1283;74396;-83
2022/05/25 00:54:26;;;;;;;3.70;1.80;;;;;;;23.05;40.88;100785.58;106861;1283;61245;-85
2022/05/25 00:56:52;;;;;;;4.80;2.00;;;;;;;23.05;40.88;100787.70;106878;1283;61268;-84
2022/05/25 00:59:32;;;;;;;3.80;2.00;;;;;;;23.05;40.79;100794.15;106860;1284;73895;-83
2022/05/25 01:02:01;;;;;;;6.40;2.20;;;;;;;23.05;40.77;100795.45;106555;1284;74605;-83
2022/05/25 01:04:30;;;;;;;3.40;1.90;;;;;;;23.05;40.77;100789.68;106700;1282;61174;-83
2022/05/25 01:07:24;;;;;;;3.70;1.90;;;;;;;23.05;40.79;100790.23;106898;1283;61460;-87
2022/05/25 01:10:01;;;;;;;3.30;1.90;;;;;;;23.04;40.70;100793.16;107076;1283;73579;-83
2022/05/25 01:12:36;;;;;;;4.80;2.10;;;;;;;23.03;40.81;100796.08;106899;1283;74164;-90
2022/05/25 01:15:23;;;;;;;3.20;1.80;;;;;;;23.04;40.66;100801.43;107087;1283;61231;-83
2022/05/25 01:18:09;;;;;;;3.80;1.80;;;;;;;23.03;40.77;100802.90;106914;1283;61320;-82
2022/05/25 01:20:54;;;;;;;4.50;2.00;;;;;;;23.03;40.75;100804.01;106655;1283;72755;-83
2022/05/25 01:23:27;;;;;;;2.90;1.80;;;;;;;23.03;40.74;100802.41;106891;1283;75833;-82
2022/05/25 01:26:03;;;;;;;4.20;1.90;;;;;;;23.03;40.71;100799.19;107021;1283;61270;-87
2022/05/25 01:28:40;;;;;;;4.00;1.80;;;;;;;23.03;40.47;100801.15;107130;1283;60133;-85
2022/05/25 01:31:09;;;;;;;4.10;1.90;;;;;;;23.03;40.55;100800.09;107093;1282;72768;-86
2022/05/25 01:33:40;;;;;;;5.20;2.50;;;;;;;23.02;40.61;100801.53;106461;1284;75537;-84
2022/05/25 01:36:38;;;;;;;3.80;1.70;;;;;;;23.03;40.53;100803.51;106888;1283;61255;-83
2022/05/25 01:39:13;;;;;;;4.20;1.80;;;;;;;23.02;40.49;100801.59;106988;1281;61554;-84
2022/05/25 01:41:46;;;;;;;3.30;2.10;;;;;;;23.02;40.54;100797.25;106886;1283;72777;-84
2022/05/25 01:44:22;;;;;;;3.20;1.90;;;;;;;23.02;40.59;100789.91;106886;1284;74524;-85
2022/05/25 01:47:07;;;;;;;3.40;2.10;;;;;;;23.02;40.58;100786.36;106610;1284;61292;-87
2022/05/25 01:49:36;;;;;;;3.30;1.90;;;;;;;23.02;40.65;100784.20;106912;1283;61445;-82
2022/05/25 01:52:04;;;;;;;4.30;1.90;;;;;;;23.02;40.57;100781.69;106883;1285;71725;-84
2022/05/25 01:54:32;;;;;;;3.50;1.80;;;;;;;23.02;40.51;100787.43;106886;1283;74653;-86
2022/05/25 01:57:00;;;;;;;3.00;1.80;;;;;;;23.02;40.45;100785.98;106933;1283;61295;-84
2022/05/25 01:59:26;;;;;;;3.20;2.00;;;;;;;23.02;40.43;100792.45;106896;1283;61276;-83
2022/05/25 02:04:47;;;;;;;4.40;1.80;;;;;;;23.01;40.51;100797.55;107121;1283;75713;-85
2022/05/25 02:07:40;;;;;;;2.90;1.80;;;;;;;23.01;40.51;100799.16;106758;1283;61109;-86
2022/05/25 02:10:39;;;;;;;3.40;2.00;;;;;;;23.01;40.46;100801.17;107144;1283;61118;-84
2022/05/25 02:13:16;;;;;;;3.30;1.80;;;;;;;23.00;40.49;100805.49;107133;1283;72627;-83
2022/05/25 02:15:55;;;;;;;4.00;2.00;;;;;;;23.00;40.46;100806.42;106985;1283;75558;-86
2022/05/25 02:18:28;;;;;;;;;;;;;;;23.00;40.34;100805.33;106717;1285;61120;-84
2022/05/25 02:21:01;;;;;;;3.20;1.70;;;;;;;22.98;40.46;100803.74;106887;1283;61101;-83
2022/05/25 02:24:14;;;;;;;3.60;1.70;;;;;;;22.98;40.54;100806.23;106899;1283;73859;-84
2022/05/25 02:26:45;;;;;;;3.80;2.00;;;;;;;22.98;40.39;100813.09;106273;1289;74700;-83
2022/05/25 02:29:18;;;;;;;4.20;1.90;;;;;;;22.98;40.40;100816.46;106209;1289;61107;-84
2022/05/25 02:31:52;;;;;;;4.00;2.20;;;;;;;22.98;40.40;100819.14;106174;1289;61173;-86
2022/05/25 02:34:20;;;;;;;3.20;1.80;;;;;;;22.98;40.57;100817.35;106164;1289;72959;-83
2022/05/25 02:36:46;;;;;;;4.30;2.20;;;;;;;22.98;40.41;100822.58;105963;1289;74456;-83
2022/05/25 02:39:21;;;;;;;4.00;1.80;;;;;;;22.98;40.43;100822.89;105957;1289;61303;-83
2022/05/25 02:41:51;;;;;;;3.50;2.00;;;;;;;22.98;40.48;100822.70;106223;1289;61686;-86
2022/05/25 02:44:17;;;;;;;3.50;1.90;;;;;;;22.98;40.41;100825.39;106413;1289;72582;-82
2022/05/25 02:46:43;;;;;;;3.10;1.80;;;;;;;22.98;40.38;100829.58;106183;1289;61278;-83
2022/05/25 02:49:14;;;;;;;3.00;1.90;;;;;;;22.98;40.41;100834.39;106139;1289;61304;-88
2022/05/25 02:51:40;;;;;;;3.30;2.10;;;;;;;22.99;40.56;100836.17;105930;1289;61168;-83
2022/05/25 02:54:06;;;;;;;3.00;1.90;;;;;;;22.98;40.39;100837.80;105961;1289;61415;-83
2022/05/25 02:56:34;;;;;;;3.40;2.00;;;;;;;22.98;40.39;100841.02;106098;1289;61246;-84
2022/05/25 02:59:03;;;;;;;3.50;1.80;;;;;;;22.98;40.38;100843.20;105995;1289;61299;-83
2022/05/25 03:01:32;;;;;;;6.10;1.90;;;;;;;22.98;40.40;100844.10;106340;1284;61132;-85
2022/05/25 03:04:00;;;;;;;3.50;1.70;;;;;;;22.98;40.32;100848.59;107124;1282;72525;-82
2022/05/25 03:06:26;;;;;;;4.80;2.30;;;;;;;22.98;40.33;100849.45;106888;1283;74857;-83
2022/05/25 03:08:54;;;;;;;6.00;2.10;;;;;;;22.98;40.34;100853.62;106895;1283;61272;-83
2022/05/25 03:11:20;;;;;;;4.10;2.00;;;;;;;22.98;40.34;100853.05;106904;1283;61237;-83
2022/05/25 03:13:48;;;;;;;4.00;2.30;;;;;;;22.98;40.29;100855.04;106608;1283;61387;-86
2022/05/25 03:16:15;;;;;;;5.00;2.10;;;;;;;22.98;40.40;100854.33;106901;1283;75795;-83
2022/05/25 03:18:43;;;;;;;3.80;1.90;;;;;;;22.98;40.47;100856.84;106879;1286;61216;-88
2022/05/25 03:21:09;;;;;;;4.10;2.00;;;;;;;22.98;40.32;100861.48;106589;1285;61605;-83
2022/05/25 03:23:36;;;;;;;4.60;2.00;;;;;;;22.98;40.39;100865.46;106880;1284;61205;-84
2022/05/25 03:26:02;;;;;;;3.50;1.80;;;;;;;22.98;40.33;100867.98;106936;1283;61252;-82
2022/05/25 03:28:28;;;;;;;3.70;1.90;;;;;;;22.97;40.44;100872.13;106935;1283;61427;-83
2022/05/25 03:30:57;;;;;;;3.20;2.00;;;;;;;22.97;40.39;100876.07;106942;1283;61167;-83
2022/05/25 03:33:22;;;;;;;3.00;1.70;;;;;;;22.97;40.53;100875.95;106681;1283;61276;-89
2022/05/25 03:35:50;;;;;;;3.60;2.00;;;;;;;22.96;40.50;100877.25;106881;1283;61314;-84
2022/05/25 03:38:16;;;;;;;2.90;1.90;;;;;;;22.96;40.52;100878.52;106911;1283;61357;-83
2022/05/25 03:40:46;;;;;;;3.40;2.00;;;;;;;22.95;40.65;100883.22;106824;1283;61226;-82
2022/05/25 03:43:12;;;;;;;2.90;1.90;;;;;;;22.94;40.61;100883.13;106872;1283;61292;-84
2022/05/25 03:45:38;;;;;;;3.70;1.80;;;;;;;22.94;40.56;100886.53;106891;1283;61293;-83
2022/05/25 03:48:07;;;;;;;3.50;1.90;;;;;;;22.94;40.65;100883.00;106968;1283;61690;-82
2022/05/25 03:50:36;;;;;;;7.70;2.60;;;;;;;22.93;40.56;100888.09;106508;1286;61588;-83
2022/05/25 03:53:02;;;;;;;;;;;;;;;22.92;40.54;100896.39;106559;1285;72762;-83
2022/05/25 03:55:28;;;;;;;4.10;2.20;;;;;;;22.90;40.54;100899.82;106471;1286;61157;-82
2022/05/25 03:57:54;;;;;;;4.00;2.50;;;;;;;22.90;40.49;100898.55;106474;1286;61420;-85
2022/05/25 04:00:20;;;;;;;5.20;2.60;;;;;;;22.89;40.41;100896.61;106582;1284;61218;-85
2022/05/25 04:02:46;;;;;;;4.60;2.50;;;;;;;22.89;40.31;100895.20;106557;1285;61410;-84
2022/05/25 04:05:16;;;;;;;3.90;2.50;;;;;;;22.87;40.28;100901.80;106372;1286;61477;-86
2022/05/25 04:07:45;;;;;;;9.70;3.10;;;;;;;22.86;40.22;100905.79;106300;1286;61378;-83
2022/05/25 04:10:14;;;;;;;8.50;3.20;;;;;;;22.85;40.31;100900.34;106374;1286;61237;-83
2022/05/25 04:12:40;;;;;;;8.90;3.10;;;;;;;22.85;40.24;100901.11;106241;1286;72494;-82
2022/05/25 04:15:07;;;;;;;10.80;3.50;;;;;;;22.84;40.16;100898.13;106338;1286;75741;-81
2022/05/25 04:17:33;;;;;;;15.80;3.30;;;;;;;22.84;40.18;100903.83;106266;1286;61360;-84
2022/05/25 04:19:59;;;;;;;12.40;3.20;;;;;;;22.84;40.31;100902.44;106263;1286;61950;-81
2022/05/25 04:22:25;;;;;;;12.00;3.50;;;;;;;22.82;40.15;100904.88;106693;1283;61234;-81
2022/05/25 04:24:51;;;;;;;8.80;2.90;;;;;;;22.82;40.17;100910.09;106598;1284;61294;-80
2022/05/25 04:27:18;;;;;;;5.60;2.60;;;;;;;22.81;40.14;100904.95;106385;1283;61171;-83
2022/05/25 04:29:43;;;;;;;5.80;2.60;;;;;;;22.81;40.06;100899.22;106213;1283;61254;-81
2022/05/25 04:32:09;;;;;;;6.10;2.70;;;;;;;22.81;40.09;100900.27;106303;1282;62048;-82
2022/05/25 04:34:35;;;;;;;5.80;2.50;;;;;;;22.81;40.11;100906.02;106364;1283;61354;-82
2022/05/25 04:37:48;;;;;;;7.40;3.20;;;;;;;22.81;39.90;100905.31;106035;1283;75080;-81
2022/05/25 04:39:46;;;;;;;9.40;2.60;;;;;;;22.81;39.88;100901.40;106466;1283;59578;-82
2022/05/25 04:42:11;;;;;;;7.20;2.40;;;;;;;22.81;39.97;100900.88;106351;1283;61373;-81
2022/05/25 04:44:37;;;;;;;9.80;2.40;;;;;;;22.79;39.88;100897.92;106296;1282;61265;-83
2022/05/25 04:47:05;;;;;;;5.00;2.50;;;;;;;22.79;39.89;100902.79;106225;1283;61239;-82
2022/05/25 04:49:31;;;;;;;6.50;3.10;;;;;;;22.80;39.92;100898.27;106159;1284;59904;-82
2022/05/25 04:51:56;;;;;;;10.00;3.00;;;;;;;22.79;39.88;100900.98;106352;1283;61279;-80
2022/05/25 04:54:22;;;;;;;7.00;3.20;;;;;;;22.78;39.89;100907.17;105973;1284;61340;-82
2022/05/25 04:59:32;;;;;;;9.50;2.80;;;;;;;22.70;39.91;100919.23;105966;1283;61269;-81
2022/05/25 05:01:59;;;;;;;10.00;3.20;;;;;;;22.68;39.93;100914.95;105917;1286;61485;-82
2022/05/25 05:04:26;;;;;;;8.90;3.10;;;;;;;22.59;39.82;100910.96;106045;1283;61138;-81
2022/05/25 05:06:52;;;;;;;10.50;3.00;;;;;;;22.56;39.93;100908.48;105800;1283;74304;-82
2022/05/25 05:09:18;;;;;;;6.90;2.90;;;;;;;22.53;40.04;100907.29;105609;1285;61203;-82
2022/05/25 05:11:44;;;;;;;8.10;3.00;;;;;;;22.53;40.12;100903.73;106071;1283;61854;-81
2022/05/25 05:14:09;;;;;;;8.50;3.10;;;;;;;22.52;40.15;100906.60;105827;1283;61312;-81
2022/05/25 05:16:35;;;;;;;11.80;2.80;;;;;;;22.53;40.20;100906.34;105867;1284;61690;-82
2022/05/25 05:19:01;;;;;;;12.20;3.00;;;;;;;22.54;40.15;100913.61;106307;1283;61691;-81
2022/05/25 05:21:26;;;;;;;9.70;3.40;;;;;;;22.57;40.10;100918.80;106111;1283;61303;-81
2022/05/25 05:23:52;;;;;;;9.40;2.50;;;;;;;22.59;40.17;100924.92;106089;1283;61275;-82
2022/05/25 05:26:18;;;;;;;7.00;2.60;;;;;;;22.61;40.25;100925.86;106037;1285;61358;-81
2022/05/25 05:28:44;;;;;;;3.80;2.40;;;;;;;22.63;40.28;100924.29;107217;1284;59135;-81
2022/05/25 05:31:13;;;;;;;8.20;2.60;;;;;;;22.64;40.22;100928.89;107698;1283;58990;-82
2022/05/25 05:33:39;;;;;;;6.80;2.50;;;;;;;22.66;40.38;100929.98;107494;1282;61737;-82
2022/05/25 05:36:20;;;;;;;6.00;2.30;;;;;;;22.68;40.49;100933.39;107460;1283;59599;-82
2022/05/25 05:38:52;;;;;;;8.20;3.30;;;;;;;22.71;40.41;100927.80;107350;1284;75592;-82
2022/05/25 05:41:19;;;;;;;5.50;2.80;;;;;;;22.69;40.59;100923.97;107489;1283;60218;-81
2022/05/25 05:43:45;;;;;;;5.30;2.60;;;;;;;22.71;40.47;100926.38;107485;1282;59329;-82
2022/05/25 05:46:10;;;;;;;5.90;2.80;;;;;;;22.73;40.48;100926.20;107656;1282;59528;-82
2022/05/25 05:48:36;;;;;;;9.20;2.90;;;;;;;22.75;40.42;100923.90;107341;1283;60402;-82
2022/05/25 05:51:03;;;;;;;15.80;3.80;;;;;;;22.76;40.45;100932.08;107385;1284;59643;-80
2022/05/25 05:53:30;;;;;;;9.40;2.90;;;;;;;22.76;40.42;100930.47;107518;1282;59043;-82
2022/05/25 05:55:57;;;;;;;11.60;4.30;;;;;;;22.76;40.69;100935.17;107423;1282;59508;-81
2022/05/25 05:58:24;;;;;;;14.80;3.60;;;;;;;22.71;40.62;100938.77;107454;1283;59146;-82
2022/05/25 06:00:49;;;;;;;10.40;4.70;;;;;;;22.58;40.96;100936.85;107232;1284;59711;-83
2022/05/25 06:03:15;;;;;;;11.00;4.30;;;;;;;22.46;41.23;100944.74;107431;1283;59494;-82
2022/05/25 06:05:41;;;;;;;11.60;4.60;;;;;;;22.44;41.60;100951.73;107680;1281;59493;-81
2022/05/25 06:08:12;;;;;;;13.00;3.40;;;;;;;22.43;41.60;100952.52;107407;1283;59512;-82
2022/05/25 06:10:39;;;;;;;6.90;3.10;;;;;;;22.47;41.71;100951.35;107450;1283;60773;-82
2022/05/25 06:13:07;;;;;;;7.10;3.00;;;;;;;22.52;41.80;100951.16;107821;1282;59805;-82
2022/05/25 06:21:05;;;;;;;5.10;2.70;;;;;;;22.67;41.77;100960.36;106168;1283;62305;-82
2022/05/25 06:23:31;;;;;;;5.10;2.70;;;;;;;22.71;41.76;100961.73;106139;1283;61223;-82
2022/05/25 06:25:56;;;;;;;8.70;2.80;;;;;;;22.75;41.90;100961.60;105896;1283;61292;-82
2022/05/25 06:28:22;;;;;;;8.70;3.30;;;;;;;22.78;41.82;100962.44;105993;1283;60136;-82
2022/05/25 06:30:48;;;;;;;10.40;2.90;;;;;;;22.81;41.76;100961.86;105978;1284;61675;-82
2022/05/25 06:33:13;;;;;;;7.40;2.80;;;;;;;22.82;41.88;100960.33;105904;1283;62334;-82
2022/05/25 06:35:39;;;;;;;8.50;3.10;;;;;;;22.85;41.80;100960.50;105894;1283;61259;-82
2022/05/25 06:38:04;;;;;;;11.40;3.40;;;;;;;22.89;41.89;100961.63;105861;1286;61397;-81
2022/05/25 06:40:30;;;;;;;7.10;3.20;;;;;;;22.92;42.37;100959.04;106246;1282;61309;-83
2022/05/25 06:42:56;;;;;;;11.50;3.80;;;;;;;22.96;42.48;100958.55;106220;1283;61284;-82
2022/05/25 06:45:21;;;;;;;13.60;3.60;;;;;;;22.99;42.68;100959.23;106058;1283;61349;-82
2022/05/25 06:47:47;;;;;;;8.30;2.90;;;;;;;23.02;42.93;100954.14;106055;1283;61324;-82
2022/05/25 06:50:13;;;;;;;9.10;3.70;;;;;;;23.04;43.11;100949.50;106113;1283;61320;-82
2022/05/25 06:52:38;;;;;;;12.60;5.70;;;;;;;23.06;43.01;100945.75;105775;1283;61355;-82
2022/05/25 06:55:04;;;;;;;9.60;4.50;;;;;;;23.01;42.88;100944.90;105934;1283;61293;-84
2022/05/25 06:57:30;;;;;;;14.80;4.70;;;;;;;22.93;42.95;100943.14;105838;1283;61417;-84
2022/05/25 06:59:55;;;;;;;12.80;4.70;;;;;;;22.90;42.93;100948.38;106130;1283;61317;-83
2022/05/25 07:02:21;;;;;;;14.20;4.90;;;;;;;22.91;42.91;100945.49;106121;1283;73043;-82
2022/05/25 07:04:47;;;;;;;10.80;5.40;;;;;;;22.86;42.86;100946.53;106033;1283;61420;-83
2022/05/25 07:07:13;;;;;;;10.40;4.30;;;;;;;22.77;42.76;100946.36;107465;1282;59076;-83
2022/05/25 07:09:39;;;;;;;11.40;4.30;;;;;;;22.74;42.88;100946.08;105866;1283;61264;-83
2022/05/25 07:12:08;;;;;;;14.90;5.20;;;;;;;22.75;43.04;100941.51;105772;1283;61285;-82
2022/05/25 07:14:34;;;;;;;12.10;4.60;;;;;;;22.76;43.01;100939.82;105900;1283;61420;-82
2022/05/25 07:17:00;;;;;;;13.40;5.30;;;;;;;22.78;43.07;100940.21;105859;1283;61174;-82
2022/05/25 07:19:25;;;;;;;11.20;4.80;;;;;;;22.74;43.06;100947.65;105891;1283;61235;-82
2022/05/25 07:21:51;;;;;;;9.60;4.20;;;;;;;22.72;43.24;100950.48;105936;1283;61435;-82
2022/05/25 07:24:17;;;;;;;10.30;4.20;;;;;;;22.76;43.36;100953.45;105838;1283;61297;-82
2022/05/25 07:26:42;;;;;;;12.90;4.60;;;;;;;22.80;43.25;100956.02;105958;1283;61386;-82
2022/05/25 07:29:08;;;;;;;9.40;4.80;;;;;;;22.82;43.24;100956.21;105822;1283;61527;-83
2022/05/25 07:31:47;;;;;;;12.00;4.80;;;;;;;22.82;43.30;100953.34;106171;1283;61308;-81
2022/05/25 07:34:20;;;;;;;12.80;4.30;;;;;;;22.83;43.29;100956.50;106964;1283;73837;-82
2022/05/25 07:36:51;;;;;;;11.80;4.20;;;;;;;22.84;43.38;100958.05;106066;1283;74016;-81
2022/05/25 07:39:18;;;;;;;14.30;4.20;;;;;;;22.86;43.26;100963.77;106148;1283;61664;-81
2022/05/25 07:41:46;;;;;;;12.60;4.50;;;;;;;22.88;43.41;100967.10;106275;1283;61379;-81
2022/05/25 07:44:14;;;;;;;8.30;3.80;;;;;;;22.88;43.62;100967.21;106567;1283;73640;-82
2022/05/25 07:46:40;;;;;;;9.20;3.80;;;;;;;22.91;43.58;100965.22;105678;1284;74572;-81
2022/05/25 07:49:05;;;;;;;7.80;4.00;;;;;;;22.94;43.52;100967.67;106033;1283;61375;-81
2022/05/25 07:51:31;;;;;;;13.00;5.10;;;;;;;22.94;43.58;100970.95;105916;1283;61394;-82
2022/05/25 07:53:58;;;;;;;10.30;5.30;;;;;;;22.91;43.61;100975.26;105824;1286;61116;-79
2022/05/25 07:56:31;;;;;;;9.80;4.80;;;;;;;22.85;43.85;100969.23;105607;1286;61283;-81
2022/05/25 07:58:58;;;;;;;11.90;4.70;;;;;;;22.84;44.11;100968.41;106165;1283;61224;-81
2022/05/25 08:05:43;;;;;;;11.20;4.20;;;;;;;22.86;44.28;100970.05;106083;1283;61407;-81
2022/05/25 08:06:55;;;;;;;17.70;4.40;;;;;;;23.00;44.64;100971.16;105837;1283;74728;-81
2022/05/25 08:09:21;;;;;;;13.70;4.40;;;;;;;23.03;44.78;100973.63;105872;1285;61252;-82
2022/05/25 08:11:46;;;;;;;9.10;3.80;;;;;;;23.04;44.76;100975.53;106170;1283;61296;-82
2022/05/25 08:14:12;;;;;;;11.90;4.00;;;;;;;23.05;44.78;100981.04;106064;1283;61661;-81
2022/05/25 08:16:37;;;;;;;10.30;3.70;;;;;;;23.05;44.80;100980.65;106039;1283;61248;-81
2022/05/25 08:19:03;;;;;;;13.60;4.10;;;;;;;23.03;44.95;100982.42;105945;1283;75715;-81
2022/05/25 08:21:28;;;;;;;10.80;3.60;;;;;;;23.03;45.18;100975.78;105853;1285;61382;-81
2022/05/25 08:23:54;;;;;;;14.30;4.60;;;;;;;23.05;45.55;100968.30;105932;1283;61359;-81
2022/05/25 08:26:19;;;;;;;10.40;3.70;;;;;;;23.06;45.70;100969.96;105991;1284;61341;-81
2022/05/25 08:28:45;;;;;;;12.30;3.50;;;;;;;23.07;45.72;100968.46;106026;1283;61267;-82
2022/05/25 08:31:11;;;;;;;16.00;4.40;;;;;;;23.10;45.83;100970.23;105819;1283;75665;-82
2022/05/25 08:33:36;;;;;;;18.90;4.80;;;;;;;23.12;45.65;100964.73;106018;1283;61383;-84
2022/05/25 08:36:02;;;;;;;9.80;4.10;;;;;;;23.13;45.80;100963.36;106051;1283;61675;-81
2022/05/25 08:38:27;;;;;;;11.10;4.20;;;;;;;23.14;45.85;100963.16;106008;1283;61273;-83
2022/05/25 08:40:53;;;;;;;15.70;4.20;;;;;;;23.12;45.91;100964.16;106092;1283;61290;-81
2022/05/25 08:43:28;;;;;;;10.90;3.90;;;;;;;23.08;45.75;100968.20;106107;1283;61361;-85
2022/05/25 08:45:59;;;;;;;10.20;4.00;;;;;;;23.06;45.76;100970.55;107497;1283;61710;-83
2022/05/25 08:48:25;;;;;;;18.00;4.30;;;;;;;23.08;45.78;100973.08;107531;1282;60967;-82
2022/05/25 08:50:53;;;;;;;15.20;4.50;;;;;;;23.11;45.95;100967.11;107270;1284;59723;-82
2022/05/25 08:53:20;;;;;;;17.70;4.70;;;;;;;23.16;46.06;100977.20;107469;1283;74891;-84
2022/05/25 08:56:09;;;;;;;15.90;5.50;;;;;;;23.21;46.28;100982.16;106620;1283;61476;-81
2022/05/25 08:58:41;;;;;;;18.70;4.40;;;;;;;23.23;46.22;100981.41;105890;1286;61515;-81
2022/05/25 09:01:07;;;;;;;18.30;4.10;;;;;;;23.26;46.28;100984.09;105814;1286;72828;-81
2022/05/25 09:03:48;;;;;;;22.70;3.70;;;;;;;23.25;46.05;100985.07;105782;1283;61762;-83
2022/05/25 09:06:52;;;;;;;19.60;3.80;;;;;;;23.23;45.79;100986.16;106021;1283;61688;-83
2022/05/25 09:09:29;;;;;;;17.40;4.20;;;;;;;23.23;45.77;100987.59;105381;1290;61662;-81
2022/05/25 09:11:58;;;;;;;9.50;3.50;;;;;;;23.23;45.59;100985.91;106532;1290;72708;-81
2022/05/25 09:14:28;;;;;;;11.40;3.60;;;;;;;23.22;45.42;100987.63;106971;1290;75700;-84
2022/05/25 09:16:54;;;;;;;12.20;3.50;;;;;;;23.20;45.40;100985.48;106302;1290;61286;-81
2022/05/25 09:19:31;;;;;;;8.00;3.60;;;;;;;23.21;45.41;100984.84;105536;1290;61279;-83
2022/05/25 09:22:21;;;;;;;8.70;3.60;;;;;;;23.22;45.29;100987.09;105863;1290;72721;-83
2022/05/25 09:24:48;;;;;;;9.40;3.10;;;;;;;23.22;45.17;100984.23;105797;1290;75805;-83
2022/05/25 09:27:13;;;;;;;12.30;3.30;;;;;;;23.22;45.06;100988.02;105948;1290;59372;-82
2022/05/25 09:29:40;;;;;;;9.70;3.70;;;;;;;23.23;45.07;100992.23;105936;1290;61276;-82
2022/05/25 09:32:11;;;;;;;7.50;3.10;;;;;;;23.24;45.01;100991.58;105639;1290;61417;-80
2022/05/25 09:35:06;;;;;;;11.70;3.00;;;;;;;23.25;44.88;100986.88;105367;1290;74749;-81
2022/05/25 09:38:02;;;;;;;10.50;3.00;;;;;;;23.25;44.66;100989.40;105476;1290;59874;-80
2022/05/25 09:40:31;;;;;;;8.10;3.10;;;;;;;23.25;44.63;100993.17;105759;1290;61151;-80
2022/05/25 09:42:57;;;;;;;9.30;3.20;;;;;;;23.25;44.58;100992.24;105647;1290;72825;-79
2022/05/25 09:45:24;;;;;;;13.90;3.50;;;;;;;23.27;44.59;100993.37;105489;1284;61444;-80
2022/05/25 09:47:51;;;;;;;12.90;3.70;;;;;;;23.29;44.54;100990.58;106501;1283;61280;-80
2022/05/25 09:50:26;;;;;;;7.90;2.70;;;;;;;23.29;44.43;100988.36;106644;1283;61160;-80
2022/05/25 09:52:53;;;;;;;16.10;3.50;;;;;;;23.30;44.40;100987.38;106419;1283;73602;-80
2022/05/25 09:55:24;;;;;;;13.70;3.40;;;;;;;23.30;44.14;100986.71;106148;1283;74682;-79
2022/05/25 09:58:20;;;;;;;8.60;3.40;;;;;;;23.30;44.19;100981.81;105976;1285;61450;-80
2022/05/25 10:01:18;;;;;;;12.20;3.30;;;;;;;23.32;44.33;100975.59;107474;1282;61552;-80
2022/05/25 10:03:44;;;;;;;14.00;3.40;;;;;;;23.33;44.45;100973.34;107508;1283;72932;-80
2022/05/25 10:06:38;;;;;;;11.80;3.30;;;;;;;23.32;44.37;100970.91;107394;1284;59465;-80
2022/05/25 10:09:20;;;;;;;12.20;3.10;;;;;;;23.32;44.23;100965.15;107463;1283;60188;-80
2022/05/25 10:11:53;;;;;;;11.40;3.30;;;;;;;23.31;43.91;100966.66;107756;1282;60489;-80
2022/05/25 10:14:24;;;;;;;12.70;3.20;;;;;;;23.30;43.81;100968.23;107457;1283;74161;-81
2022/05/25 10:16:51;;;;;;;23.80;4.00;;;;;;;23.30;43.74;100971.46;107539;1283;75424;-80
2022/05/25 10:19:18;;;;;;;12.30;3.60;;;;;;;23.31;43.86;100971.88;107473;1283;59283;-80
2022/05/25 10:22:02;;;;;;;12.20;3.80;;;;;;;23.32;44.01;100966.20;107483;1283;60296;-80
2022/05/25 10:24:40;;;;;;;11.60;3.70;;;;;;;23.35;44.21;100961.52;107483;1283;72671;-80
2022/05/25 10:27:15;;;;;;;22.60;4.10;;;;;;;23.38;44.72;100960.92;107464;1283;74770;-81
2022/05/25 10:38:32;;;;;;;16.10;3.90;;;;;;;23.44;44.94;100942.85;105970;1283;73661;-79
2022/05/25 10:41:37;;;;;;;21.70;3.70;;;;;;;23.44;44.79;100938.91;105854;1283;61157;-80
2022/05/25 10:43:45;;;;;;;15.70;3.90;;;;;;;23.44;44.69;100937.45;106067;1283;63376;-80
2022/05/25 10:46:11;;;;;;;7.90;2.90;;;;;;;23.45;44.62;100929.48;105713;1286;72855;-80
2022/05/25 10:48:39;;;;;;;11.10;3.20;;;;;;;23.47;44.36;100927.69;105809;1283;61387;-80
2022/05/25 10:51:13;;;;;;;13.50;3.70;;;;;;;23.48;43.92;100920.41;106162;1283;61201;-80
2022/05/25 10:56:46;;;;;;;13.30;3.90;;;;;;;23.48;44.08;100918.42;106971;1283;71440;-80
2022/05/25 10:59:40;;;;;;;12.50;4.00;;;;;;;23.49;44.15;100912.81;107376;1283;65884;-80
2022/05/25 11:02:36;;;;;;;10.80;3.70;;;;;;;23.50;44.19;100910.37;107701;1283;60226;-80
2022/05/25 11:05:25;;;;;;;14.10;3.90;;;;;;;23.51;44.31;100907.94;107723;1282;60517;-80
2022/05/25 11:07:54;;;;;;;14.30;4.20;;;;;;;23.52;44.33;100905.69;107484;1283;72631;-80
2022/05/25 11:10:44;;;;;;;9.10;4.20;;;;;;;23.54;44.27;100897.33;107447;1284;75825;-80
2022/05/25 11:13:41;;;;;;;10.50;3.90;;;;;;;23.54;44.23;100888.13;107744;1282;61304;-80
2022/05/25 11:16:44;;;;;;;10.30;4.00;;;;;;;23.54;44.12;100888.11;107736;1283;60089;-80
2022/05/25 11:19:28;;;;;;;9.70;3.80;;;;;;;23.55;44.15;100888.08;106210;1283;73811;-79
2022/05/25 11:22:00;;;;;;;10.30;3.80;;;;;;;23.56;44.04;100882.27;105838;1283;74553;-80
2022/05/25 11:24:52;;;;;;;8.60;3.40;;;;;;;23.57;43.92;100874.83;105992;1284;62777;-80
2022/05/25 11:27:39;;;;;;;7.30;4.10;;;;;;;23.57;43.86;100872.26;105580;1289;61354;-79
2022/05/25 11:30:16;;;;;;;17.90;4.00;;;;;;;23.57;43.75;100870.66;105364;1288;72779;-79
2022/05/25 11:32:47;;;;;;;10.20;3.60;;;;;;;23.57;43.83;100871.23;105711;1289;74772;-79
2022/05/25 11:35:39;;;;;;;8.40;3.70;;;;;;;23.56;43.72;100870.76;105530;1289;61285;-78
2022/05/25 11:38:19;;;;;;;17.20;3.50;;;;;;;23.56;43.67;100867.71;105142;1290;61400;-80
2022/05/25 11:41:05;;;;;;;15.30;3.80;;;;;;;23.55;43.66;100864.17;105322;1289;72645;-79
2022/05/25 11:43:53;;;;;;;9.80;3.30;;;;;;;23.55;43.60;100870.63;106539;1289;75835;-80
2022/05/25 11:46:57;;;;;;;12.40;3.60;;;;;;;23.56;43.53;100876.14;105262;1289;61284;-79
2022/05/25 11:49:35;;;;;;;9.50;2.90;;;;;;;23.56;43.57;100877.73;104517;1297;61265;-79
2022/05/25 11:52:10;;;;;;;12.60;3.00;;;;;;;23.58;42.90;100873.80;106016;1297;74811;-80
2022/05/25 11:54:40;;;;;;;14.10;3.20;;;;;;;23.58;43.02;100875.55;106055;1296;73406;-80
2022/05/25 11:57:35;;;;;;;9.00;2.60;;;;;;;23.60;42.99;100871.86;106004;1297;61760;-80
2022/05/25 12:00:06;;;;;;;8.00;2.90;;;;;;;23.63;42.49;100865.51;105992;1296;61920;-80
2022/05/25 12:02:42;;;;;;;9.30;3.40;;;;;;;23.65;42.52;100870.97;106137;1296;73826;-80